Time;durP1;ratioP1;P1;durP2;ratioP2;P2;SDS_P1;SDS_P2;PMS_P1;PMS_P2;Temp;Humidity;BMP_temperature;BMP_pressure;BME280_temperature;BME280_humidity;BME280_pressure;Samples;Min_cycle;Max_cycle;Signal;HPM_P1;HPM_P2
2022/04/09 00:01:40;;;;;;;11.38;1.80;;;;;;;;;;4973141;28;20154;-80
2022/04/09 00:04:06;;;;;;;13.15;1.88;;;;;;;;;;4995147;28;20049;-80
2022/04/09 00:06:33;;;;;;;10.73;1.90;;;;;;;;;;4986853;28;20058;-80
2022/04/09 00:08:59;;;;;;;13.77;1.88;;;;;;;;;;4975929;28;20039;-80
2022/04/09 00:11:26;;;;;;;12.40;1.88;;;;;;;;;;4976222;28;20058;-80
2022/04/09 00:13:52;;;;;;;7.78;1.67;;;;;;;;;;4992471;28;20066;-80
2022/04/09 00:16:19;;;;;;;12.05;1.85;;;;;;;;;;4975394;28;20541;-80
2022/04/09 00:18:45;;;;;;;14.98;1.95;;;;;;;;;;4993132;28;20069;-80
2022/04/09 00:21:11;;;;;;;10.65;1.65;;;;;;;;;;4994296;28;20130;-80
2022/04/09 00:23:38;;;;;;;9.25;1.40;;;;;;;;;;4991800;28;20133;-80
2022/04/09 00:26:04;;;;;;;13.27;1.65;;;;;;;;;;4993864;28;20091;-80
2022/04/09 00:28:30;;;;;;;9.65;1.63;;;;;;;;;;4993410;28;20518;-80
2022/04/09 00:30:57;;;;;;;6.68;1.42;;;;;;;;;;4979961;28;20114;-80
2022/04/09 00:33:26;;;;;;;13.82;1.77;;;;;;;;;;4975286;28;20099;-80
2022/04/09 00:35:52;;;;;;;5.22;1.10;;;;;;;;;;4973270;28;20054;-81
2022/04/09 00:38:18;;;;;;;13.68;1.52;;;;;;;;;;4992697;28;20046;-80
2022/04/09 00:40:44;;;;;;;14.10;1.80;;;;;;;;;;4989849;28;20114;-79
2022/04/09 00:43:11;;;;;;;13.75;1.55;;;;;;;;;;4993276;28;20142;-80
2022/04/09 00:45:37;;;;;;;14.57;2.08;;;;;;;;;;4975493;28;20937;-80
2022/04/09 00:48:05;;;;;;;7.30;1.48;;;;;;;;;;4991938;28;20146;-80
2022/04/09 00:50:31;;;;;;;8.27;1.77;;;;;;;;;;4991944;28;20071;-80
2022/04/09 00:53:01;;;;;;;7.65;1.98;;;;;;;;;;4993741;28;20062;-79
2022/04/09 00:58:14;;;;;;;7.15;1.23;;;;;;;;;;4991391;28;20163;-80
2022/04/09 01:00:41;;;;;;;12.13;1.75;;;;;;;;;;4990256;28;20629;-79
2022/04/09 01:03:10;;;;;;;8.82;1.30;;;;;;;;;;4993083;28;20059;-79
2022/04/09 01:05:37;;;;;;;8.60;1.38;;;;;;;;;;4988469;28;20146;-80
2022/04/09 01:08:04;;;;;;;14.27;2.13;;;;;;;;;;4980130;28;20055;-80
2022/04/09 01:10:31;;;;;;;7.70;1.17;;;;;;;;;;4972668;28;20063;-80
2022/04/09 01:12:58;;;;;;;8.30;1.42;;;;;;;;;;4974772;28;20051;-79
2022/04/09 01:15:25;;;;;;;11.38;1.77;;;;;;;;;;4992611;28;20109;-80
2022/04/09 01:17:51;;;;;;;12.27;1.60;;;;;;;;;;4988821;28;20094;-80
2022/04/09 01:20:19;;;;;;;8.60;1.55;;;;;;;;;;4975152;28;20078;-80
2022/04/09 01:22:45;;;;;;;12.02;1.23;;;;;;;;;;4991932;28;20564;-80
2022/04/09 01:25:11;;;;;;;9.40;2.00;;;;;;;;;;4973354;28;20078;-80
2022/04/09 01:27:38;;;;;;;8.95;1.60;;;;;;;;;;4966961;28;20081;-80
2022/04/09 01:30:05;;;;;;;7.80;1.30;;;;;;;;;;4990203;28;20134;-80
2022/04/09 01:32:31;;;;;;;7.47;1.17;;;;;;;;;;4990573;28;20047;-79
2022/04/09 01:35:01;;;;;;;12.43;1.80;;;;;;;;;;4990945;28;20058;-80
2022/04/09 01:37:28;;;;;;;9.52;1.48;;;;;;;;;;4988974;28;20202;-80
2022/04/09 01:39:54;;;;;;;11.57;1.60;;;;;;;;;;4990477;28;20935;-80
2022/04/09 01:42:21;;;;;;;10.57;1.70;;;;;;;;;;4988033;28;20066;-80
2022/04/09 01:44:48;;;;;;;9.63;1.30;;;;;;;;;;4989694;28;20094;-79
2022/04/09 01:47:14;;;;;;;5.30;1.20;;;;;;;;;;4987791;28;20146;-80
2022/04/09 01:49:41;;;;;;;8.88;1.65;;;;;;;;;;4973308;28;20150;-80
2022/04/09 01:52:07;;;;;;;11.73;1.27;;;;;;;;;;4989319;28;20059;-80
2022/04/09 01:54:34;;;;;;;8.02;1.40;;;;;;;;;;4991246;28;20575;-80
2022/04/09 01:57:00;;;;;;;10.07;1.50;;;;;;;;;;4973381;28;20074;-80
2022/04/09 01:59:27;;;;;;;11.98;1.55;;;;;;;;;;4991037;28;20138;-80
2022/04/09 02:01:53;;;;;;;14.30;1.67;;;;;;;;;;4973560;28;20101;-79
2022/04/09 02:04:20;;;;;;;11.00;1.30;;;;;;;;;;4990993;28;20066;-81
2022/04/09 02:06:47;;;;;;;12.75;1.75;;;;;;;;;;4972182;28;20090;-81
2022/04/09 02:09:14;;;;;;;9.55;1.60;;;;;;;;;;4973565;28;20137;-81
2022/04/09 02:11:41;;;;;;;12.15;1.65;;;;;;;;;;4973909;28;20047;-80
2022/04/09 02:14:08;;;;;;;8.35;1.33;;;;;;;;;;4974118;28;20070;-80
2022/04/09 02:16:35;;;;;;;15.50;1.80;;;;;;;;;;4988084;28;20048;-80
2022/04/09 02:19:02;;;;;;;10.55;1.33;;;;;;;;;;4990724;28;20548;-81
2022/04/09 02:21:28;;;;;;;8.23;1.20;;;;;;;;;;4962441;28;20134;-81
2022/04/09 02:23:54;;;;;;;13.23;1.50;;;;;;;;;;4972148;28;20106;-80
2022/04/09 02:26:21;;;;;;;8.38;1.52;;;;;;;;;;4982794;28;20047;-81
2022/04/09 02:28:49;;;;;;;14.68;1.45;;;;;;;;;;4991066;28;20059;-81
2022/04/09 02:31:17;;;;;;;10.88;1.58;;;;;;;;;;4973362;28;20054;-80
2022/04/09 02:33:44;;;;;;;9.10;1.25;;;;;;;;;;4988541;28;20062;-80
2022/04/09 02:36:12;;;;;;;15.48;1.65;;;;;;;;;;4988604;28;20138;-81
2022/04/09 02:38:39;;;;;;;6.57;1.58;;;;;;;;;;4983692;28;20052;-80
2022/04/09 02:41:06;;;;;;;6.13;1.38;;;;;;;;;;4980090;28;20134;-80
2022/04/09 02:43:33;;;;;;;5.95;1.00;;;;;;;;;;4988002;28;20574;-81
2022/04/09 02:45:59;;;;;;;9.80;1.70;;;;;;;;;;4990435;28;20082;-81
2022/04/09 02:48:25;;;;;;;6.00;1.20;;;;;;;;;;4977525;28;20055;-81
2022/04/09 02:50:52;;;;;;;8.30;1.40;;;;;;;;;;4987771;28;20145;-81
2022/04/09 02:53:18;;;;;;;8.48;1.30;;;;;;;;;;4988076;28;20134;-81
2022/04/09 02:55:44;;;;;;;5.32;1.15;;;;;;;;;;4973308;28;20109;-80
2022/04/09 02:58:11;;;;;;;6.63;1.70;;;;;;;;;;4969163;28;20430;-80
2022/04/09 03:00:37;;;;;;;10.18;1.88;;;;;;;;;;4985083;28;20142;-81
2022/04/09 03:03:07;;;;;;;13.15;1.38;;;;;;;;;;4976867;28;20083;-80
2022/04/09 03:05:34;;;;;;;7.30;1.45;;;;;;;;;;4983355;28;20055;-81
2022/04/09 03:08:00;;;;;;;9.50;1.30;;;;;;;;;;4996952;28;20065;-80
2022/04/09 03:10:27;;;;;;;8.95;1.40;;;;;;;;;;4993153;28;20082;-81
2022/04/09 03:12:53;;;;;;;6.03;0.98;;;;;;;;;;4991740;28;20536;-81
2022/04/09 03:15:19;;;;;;;13.23;1.60;;;;;;;;;;4992571;28;20055;-81
2022/04/09 03:17:46;;;;;;;9.52;1.45;;;;;;;;;;4990390;28;20089;-80
2022/04/09 03:20:12;;;;;;;8.73;1.88;;;;;;;;;;4978248;28;20141;-79
2022/04/09 03:22:45;;;;;;;11.02;1.95;;;;;;;;;;4973892;28;20051;-81
2022/04/09 03:25:12;;;;;;;10.10;1.45;;;;;;;;;;4987212;28;20051;-80
2022/04/09 03:27:38;;;;;;;9.45;1.52;;;;;;;;;;4976783;28;20094;-80
2022/04/09 03:30:06;;;;;;;12.80;1.70;;;;;;;;;;4975516;28;20141;-80
2022/04/09 03:32:34;;;;;;;8.95;1.70;;;;;;;;;;4975945;28;20093;-81
2022/04/09 03:35:00;;;;;;;13.43;3.22;;;;;;;;;;4992783;28;20146;-80
2022/04/09 03:37:27;;;;;;;10.77;1.90;;;;;;;;;;4991452;28;20051;-80
2022/04/09 03:39:53;;;;;;;14.80;2.35;;;;;;;;;;4983528;28;20063;-80
2022/04/09 03:42:19;;;;;;;9.93;1.55;;;;;;;;;;4990989;28;20115;-80
2022/04/09 03:44:46;;;;;;;8.48;1.45;;;;;;;;;;4981223;28;20178;-81
2022/04/09 03:47:12;;;;;;;8.82;1.42;;;;;;;;;;4993125;28;20065;-80
2022/04/09 03:49:39;;;;;;;9.82;1.35;;;;;;;;;;4992324;28;20169;-79
2022/04/09 03:52:05;;;;;;;7.63;1.63;;;;;;;;;;4985228;28;20058;-81
2022/04/09 03:54:34;;;;;;;11.43;1.48;;;;;;;;;;4992449;28;20141;-80
2022/04/09 03:57:00;;;;;;;11.70;1.50;;;;;;;;;;4992282;28;20150;-81
2022/04/09 03:59:27;;;;;;;12.35;1.45;;;;;;;;;;4991329;28;20086;-81
2022/04/09 04:01:53;;;;;;;12.75;1.65;;;;;;;;;;4975815;28;20157;-81
2022/04/09 04:04:21;;;;;;;7.63;1.20;;;;;;;;;;4991410;28;20101;-81
2022/04/09 04:06:48;;;;;;;7.35;1.27;;;;;;;;;;4997113;28;20090;-81
2022/04/09 04:09:16;;;;;;;6.82;1.45;;;;;;;;;;4990673;28;20592;-81
2022/04/09 04:11:43;;;;;;;6.32;1.00;;;;;;;;;;4991011;28;20051;-81
2022/04/09 04:14:10;;;;;;;7.03;1.20;;;;;;;;;;4990110;28;20075;-80
2022/04/09 04:16:36;;;;;;;7.35;1.13;;;;;;;;;;4974413;28;20546;-80
2022/04/09 04:19:02;;;;;;;7.00;0.90;;;;;;;;;;4990637;28;20431;-81
2022/04/09 04:21:29;;;;;;;7.43;1.27;;;;;;;;;;4972877;28;20058;-81
2022/04/09 04:23:55;;;;;;;7.72;0.98;;;;;;;;;;4994514;28;20711;-81
2022/04/09 04:26:22;;;;;;;5.95;1.10;;;;;;;;;;4985237;28;20055;-81
2022/04/09 04:28:51;;;;;;;5.30;1.25;;;;;;;;;;4970425;28;20063;-81
2022/04/09 04:31:17;;;;;;;8.05;1.40;;;;;;;;;;4977903;28;20054;-81
2022/04/09 04:33:44;;;;;;;7.82;1.35;;;;;;;;;;4988790;28;20560;-80
2022/04/09 04:36:10;;;;;;;8.07;1.23;;;;;;;;;;4990491;28;20059;-81
2022/04/09 04:38:37;;;;;;;5.25;1.20;;;;;;;;;;4991370;28;21000;-81
2022/04/09 04:41:04;;;;;;;10.98;1.63;;;;;;;;;;4991103;28;20585;-81
2022/04/09 04:43:31;;;;;;;5.78;1.15;;;;;;;;;;4971054;28;20505;-80
2022/04/09 04:45:58;;;;;;;7.60;1.15;;;;;;;;;;4988332;28;20090;-81
2022/04/09 04:48:25;;;;;;;5.63;1.40;;;;;;;;;;4980987;28;20058;-81
2022/04/09 04:50:51;;;;;;;7.63;1.95;;;;;;;;;;4994008;28;20085;-81
2022/04/09 04:53:17;;;;;;;6.25;1.55;;;;;;;;;;4970376;28;20536;-81
2022/04/09 04:55:44;;;;;;;10.30;1.50;;;;;;;;;;4975568;28;20051;-81
2022/04/09 04:58:16;;;;;;;8.00;1.38;;;;;;;;;;4972108;28;20260;-81
2022/04/09 05:00:43;;;;;;;11.18;1.60;;;;;;;;;;4989636;28;20078;-80
2022/04/09 05:03:09;;;;;;;12.15;2.30;;;;;;;;;;4990075;28;20133;-80
2022/04/09 05:05:36;;;;;;;10.13;1.92;;;;;;;;;;4989232;28;20059;-81
2022/04/09 05:08:02;;;;;;;8.75;1.42;;;;;;;;;;4972810;28;20141;-81
2022/04/09 05:10:29;;;;;;;10.65;1.90;;;;;;;;;;4972887;28;20486;-81
2022/04/09 05:12:56;;;;;;;7.72;1.67;;;;;;;;;;4988489;28;20093;-81
2022/04/09 05:15:22;;;;;;;9.65;1.52;;;;;;;;;;4986616;28;20065;-80
2022/04/09 05:17:49;;;;;;;9.23;2.03;;;;;;;;;;4972565;28;20145;-81
2022/04/09 05:20:16;;;;;;;10.30;1.60;;;;;;;;;;4989907;28;20114;-82
2022/04/09 05:22:46;;;;;;;11.35;1.50;;;;;;;;;;4978231;28;20082;-81
2022/04/09 05:25:18;;;;;;;7.07;1.13;;;;;;;;;;4972916;28;20055;-81
2022/04/09 05:27:45;;;;;;;12.95;1.52;;;;;;;;;;4978796;28;20067;-81
2022/04/09 05:30:11;;;;;;;8.98;1.50;;;;;;;;;;4971814;28;20141;-81
2022/04/09 05:32:39;;;;;;;9.43;1.30;;;;;;;;;;4990498;28;20105;-81
2022/04/09 05:35:09;;;;;;;7.30;1.17;;;;;;;;;;4989341;28;20141;-82
2022/04/09 05:37:35;;;;;;;10.40;1.65;;;;;;;;;;4989735;28;20707;-81
2022/04/09 05:40:05;;;;;;;10.18;1.20;;;;;;;;;;4996774;28;20078;-81
2022/04/09 05:42:32;;;;;;;12.13;1.42;;;;;;;;;;4978333;28;20055;-81
2022/04/09 05:44:58;;;;;;;9.48;1.45;;;;;;;;;;4988352;28;20134;-82
2022/04/09 05:47:24;;;;;;;10.98;1.70;;;;;;;;;;4988176;28;20113;-82
2022/04/09 05:49:53;;;;;;;16.48;2.03;;;;;;;;;;4982028;28;20797;-81
2022/04/09 05:52:19;;;;;;;9.63;1.92;;;;;;;;;;4990201;28;20055;-81
2022/04/09 05:54:46;;;;;;;7.65;1.95;;;;;;;;;;4971911;28;20089;-82
2022/04/09 05:57:13;;;;;;;8.43;1.70;;;;;;;;;;4972419;28;20031;-81
2022/04/09 05:59:39;;;;;;;11.00;1.40;;;;;;;;;;4989943;28;20082;-81
2022/04/09 06:02:06;;;;;;;11.63;2.03;;;;;;;;;;4973469;28;20061;-81
2022/04/09 06:04:32;;;;;;;6.97;1.63;;;;;;;;;;4988669;28;20058;-81
2022/04/09 06:07:00;;;;;;;7.10;1.70;;;;;;;;;;4988119;28;20741;-81
2022/04/09 06:09:26;;;;;;;9.90;1.33;;;;;;;;;;4989925;28;20190;-81
2022/04/09 06:11:53;;;;;;;8.68;1.40;;;;;;;;;;4972613;28;20879;-80
2022/04/09 06:14:20;;;;;;;13.50;1.73;;;;;;;;;;4988810;28;20115;-80
2022/04/09 06:16:46;;;;;;;9.07;1.52;;;;;;;;;;4987456;28;20086;-81
2022/04/09 06:19:12;;;;;;;9.13;1.30;;;;;;;;;;4972969;28;20137;-80
2022/04/09 06:21:39;;;;;;;12.25;1.65;;;;;;;;;;4996685;28;20142;-81
2022/04/09 06:24:06;;;;;;;9.15;1.92;;;;;;;;;;4990342;28;20162;-81
2022/04/09 06:26:32;;;;;;;15.32;3.42;;;;;;;;;;4972560;28;20051;-82
2022/04/09 06:28:58;;;;;;;10.18;2.67;;;;;;;;;;4972604;28;20573;-83
2022/04/09 06:31:25;;;;;;;10.55;1.98;;;;;;;;;;4988638;28;20109;-82
2022/04/09 06:33:53;;;;;;;7.68;2.10;;;;;;;;;;4972172;28;20061;-82
2022/04/09 06:36:19;;;;;;;9.60;1.80;;;;;;;;;;4977362;28;20061;-82
2022/04/09 06:38:46;;;;;;;19.60;3.58;;;;;;;;;;4967094;28;20050;-82
2022/04/09 06:41:14;;;;;;;10.18;2.75;;;;;;;;;;4992496;28;20058;-82
2022/04/09 06:43:41;;;;;;;10.77;2.55;;;;;;;;;;4975540;28;20142;-81
2022/04/09 06:46:07;;;;;;;14.48;5.55;;;;;;;;;;4976995;28;20058;-81
2022/04/09 06:48:34;;;;;;;11.45;4.55;;;;;;;;;;4975483;28;20067;-83
2022/04/09 06:51:00;;;;;;;17.30;7.45;;;;;;;;;;4992609;28;21409;-82
2022/04/09 06:53:27;;;;;;;12.48;3.50;;;;;;;;;;4983093;28;20145;-81
2022/04/09 06:55:53;;;;;;;13.88;2.33;;;;;;;;;;4995146;28;20051;-82
2022/04/09 06:58:20;;;;;;;8.75;1.80;;;;;;;;;;4999189;28;20098;-80
2022/04/09 07:00:46;;;;;;;16.02;2.42;;;;;;;;;;4992356;28;20105;-79
2022/04/09 07:03:14;;;;;;;15.18;2.45;;;;;;;;;;4992976;28;20065;-79
2022/04/09 07:05:42;;;;;;;12.68;2.67;;;;;;;;;;4993365;28;20055;-80
2022/04/09 07:08:09;;;;;;;7.60;1.50;;;;;;;;;;5004506;28;20055;-80
2022/04/09 07:10:37;;;;;;;9.35;1.20;;;;;;;;;;4990762;28;20106;-80
2022/04/09 07:13:06;;;;;;;8.25;1.30;;;;;;;;;;4995418;28;20101;-79
2022/04/09 07:15:32;;;;;;;4.40;1.20;;;;;;;;;;4994395;28;20059;-81
2022/04/09 07:17:59;;;;;;;8.32;1.38;;;;;;;;;;4996282;28;20445;-80
2022/04/09 07:20:25;;;;;;;7.78;1.17;;;;;;;;;;4977275;28;20054;-80
2022/04/09 07:22:52;;;;;;;9.43;1.17;;;;;;;;;;4993860;28;20794;-83
2022/04/09 07:25:19;;;;;;;6.95;0.95;;;;;;;;;;4981668;28;20063;-81
2022/04/09 07:27:47;;;;;;;5.28;1.00;;;;;;;;;;5003081;28;20070;-80
2022/04/09 07:30:20;;;;;;;4.20;0.80;;;;;;;;;;4972157;28;20058;-81
2022/04/09 07:32:48;;;;;;;7.28;1.02;;;;;;;;;;4993165;28;20433;-81
2022/04/09 07:35:14;;;;;;;4.00;0.90;;;;;;;;;;4991275;28;20062;-81
2022/04/09 07:37:45;;;;;;;5.63;0.90;;;;;;;;;;4975259;28;20872;-82
2022/04/09 07:40:14;;;;;;;7.07;0.82;;;;;;;;;;4999844;28;20888;-80
2022/04/09 07:42:44;;;;;;;3.78;0.75;;;;;;;;;;4998477;28;20051;-80
2022/04/09 07:45:12;;;;;;;6.75;0.90;;;;;;;;;;4990807;28;20498;-80
2022/04/09 07:47:39;;;;;;;11.60;1.08;;;;;;;;;;4992432;28;20059;-80
2022/04/09 07:50:10;;;;;;;8.25;1.05;;;;;;;;;;4991924;28;20058;-79
2022/04/09 07:52:42;;;;;;;6.90;1.05;;;;;;;;;;4974943;28;20061;-79
2022/04/09 07:55:12;;;;;;;8.43;1.20;;;;;;;;;;4989309;28;20051;-80
2022/04/09 07:57:38;;;;;;;6.40;0.93;;;;;;;;;;4986389;28;20046;-81
2022/04/09 08:00:05;;;;;;;8.18;1.25;;;;;;;;;;4991364;28;20324;-81
2022/04/09 08:02:33;;;;;;;3.88;1.15;;;;;;;;;;4989377;28;20058;-82
2022/04/09 08:04:59;;;;;;;6.40;0.90;;;;;;;;;;4975708;28;20142;-82
2022/04/09 08:07:25;;;;;;;5.22;1.30;;;;;;;;;;4988935;28;20145;-83
2022/04/09 08:09:52;;;;;;;8.85;1.90;;;;;;;;;;4974925;28;20142;-82
2022/04/09 08:12:18;;;;;;;8.65;1.08;;;;;;;;;;4989589;28;20567;-82
2022/04/09 08:14:45;;;;;;;9.10;1.55;;;;;;;;;;4974320;28;20039;-82
2022/04/09 08:17:12;;;;;;;6.53;1.30;;;;;;;;;;4992073;28;20133;-82
2022/04/09 08:19:38;;;;;;;10.40;0.93;;;;;;;;;;4975583;28;20082;-81
2022/04/09 08:22:05;;;;;;;5.90;1.15;;;;;;;;;;4996187;28;20142;-82
2022/04/09 08:24:32;;;;;;;7.40;0.93;;;;;;;;;;4974102;28;20054;-83
2022/04/09 08:26:58;;;;;;;9.65;1.08;;;;;;;;;;4993260;28;20090;-82
2022/04/09 08:29:25;;;;;;;10.43;1.42;;;;;;;;;;4989617;28;20134;-83
2022/04/09 08:31:51;;;;;;;10.68;1.30;;;;;;;;;;4986826;28;20054;-83
2022/04/09 08:34:19;;;;;;;4.85;0.88;;;;;;;;;;4990430;28;20490;-82
2022/04/09 08:36:46;;;;;;;8.48;1.10;;;;;;;;;;4990822;28;20141;-82
2022/04/09 08:39:12;;;;;;;12.82;1.27;;;;;;;;;;4991899;28;20880;-83
2022/04/09 08:41:42;;;;;;;4.82;0.77;;;;;;;;;;4992076;28;20094;-82
2022/04/09 08:44:09;;;;;;;7.28;0.90;;;;;;;;;;4992297;28;20059;-84
2022/04/09 08:46:37;;;;;;;10.02;1.48;;;;;;;;;;4991879;28;21486;-82
2022/04/09 08:49:04;;;;;;;7.72;1.10;;;;;;;;;;4987739;28;20055;-82
2022/04/09 08:51:31;;;;;;;6.22;1.10;;;;;;;;;;4983422;28;20514;-82
2022/04/09 08:54:00;;;;;;;6.93;1.27;;;;;;;;;;4976236;28;20101;-81
2022/04/09 08:56:37;;;;;;;9.85;1.88;;;;;;;;;;4991936;28;20061;-83
2022/04/09 08:59:04;;;;;;;7.57;1.70;;;;;;;;;;4992911;28;20050;-82
2022/04/09 09:01:30;;;;;;;7.78;1.27;;;;;;;;;;4992030;28;20126;-82
2022/04/09 09:03:57;;;;;;;8.65;1.20;;;;;;;;;;4991086;28;20830;-81
2022/04/09 09:06:25;;;;;;;9.55;1.30;;;;;;;;;;4987948;28;20134;-83
2022/04/09 09:08:51;;;;;;;12.90;2.50;;;;;;;;;;4978509;28;20133;-82
2022/04/09 09:11:19;;;;;;;9.18;1.23;;;;;;;;;;4974229;28;20050;-82
2022/04/09 09:13:50;;;;;;;7.55;1.02;;;;;;;;;;4992868;28;20110;-84
2022/04/09 09:16:25;;;;;;;7.82;1.48;;;;;;;;;;4992272;28;20137;-82
2022/04/09 09:18:52;;;;;;;4.55;1.00;;;;;;;;;;4981888;28;20070;-82
2022/04/09 09:21:23;;;;;;;7.60;1.13;;;;;;;;;;4984770;28;20055;-81
2022/04/09 09:23:51;;;;;;;9.45;1.80;;;;;;;;;;4969530;28;20122;-83
2022/04/09 09:26:21;;;;;;;3.00;0.70;;;;;;;;;;4987448;28;20050;-80
2022/04/09 09:28:55;;;;;;;5.65;0.90;;;;;;;;;;4972807;28;20524;-81
2022/04/09 09:31:41;;;;;;;4.22;0.70;;;;;;;;;;4957251;28;20106;-80
2022/04/09 09:34:12;;;;;;;2.33;0.43;;;;;;;;;;4987784;28;20063;-80
2022/04/09 09:36:40;;;;;;;4.13;0.80;;;;;;;;;;4988613;28;20049;-82
2022/04/09 09:39:07;;;;;;;5.20;0.90;;;;;;;;;;4986808;28;20058;-80
2022/04/09 09:41:34;;;;;;;5.95;0.98;;;;;;;;;;4986647;28;20059;-79
2022/04/09 09:44:01;;;;;;;9.82;1.10;;;;;;;;;;4988176;28;20086;-80
2022/04/09 09:46:27;;;;;;;4.35;1.30;;;;;;;;;;4972344;28;20676;-81
2022/04/09 09:48:54;;;;;;;10.20;1.42;;;;;;;;;;4973970;28;20066;-81
2022/04/09 09:51:24;;;;;;;14.95;6.10;;;;;;;;;;4976165;28;20071;-80
2022/04/09 09:54:02;;;;;;;25.08;10.77;;;;;;;;;;4988062;28;20110;-81
2022/04/09 09:56:36;;;;;;;40.35;19.42;;;;;;;;;;5004132;28;20887;-81
2022/04/09 09:59:05;;;;;;;19.00;8.45;;;;;;;;;;4988084;28;20106;-81
2022/04/09 10:01:35;;;;;;;12.95;1.48;;;;;;;;;;4971332;28;20150;-81
2022/04/09 10:04:03;;;;;;;6.75;2.05;;;;;;;;;;4993521;28;20154;-80
2022/04/09 10:06:31;;;;;;;6.95;1.40;;;;;;;;;;4993621;28;20055;-79
2022/04/09 10:08:58;;;;;;;8.27;2.25;;;;;;;;;;4976579;28;20087;-79
2022/04/09 10:11:25;;;;;;;22.77;9.88;;;;;;;;;;4981802;28;20067;-79
2022/04/09 10:13:54;;;;;;;14.93;4.35;;;;;;;;;;4994485;28;20081;-80
2022/04/09 10:16:22;;;;;;;3.38;0.80;;;;;;;;;;4992161;28;20086;-79
2022/04/09 10:18:49;;;;;;;3.42;1.30;;;;;;;;;;4970407;28;20522;-79
2022/04/09 10:21:19;;;;;;;7.97;3.58;;;;;;;;;;4971611;28;20079;-78
2022/04/09 10:23:46;;;;;;;13.05;6.68;;;;;;;;;;4991317;28;20145;-79
2022/04/09 10:26:12;;;;;;;23.30;10.40;;;;;;;;;;4991403;28;20051;-79
2022/04/09 10:28:39;;;;;;;11.27;4.22;;;;;;;;;;4987721;28;20102;-79
2022/04/09 10:31:24;;;;;;;12.82;3.30;;;;;;;;;;4988335;28;20150;-78
2022/04/09 10:33:55;;;;;;;9.68;2.03;;;;;;;;;;4987482;28;20083;-80
2022/04/09 10:36:56;;;;;;;4.53;0.90;;;;;;;;;;4974251;28;20086;-79
2022/04/09 10:39:42;;;;;;;6.53;1.08;;;;;;;;;;4976746;28;20087;-79
2022/04/09 10:42:09;;;;;;;6.43;0.82;;;;;;;;;;4969283;28;20081;-78
2022/04/09 10:44:35;;;;;;;5.75;1.00;;;;;;;;;;4980087;28;20070;-78
2022/04/09 10:47:03;;;;;;;9.23;1.42;;;;;;;;;;4983361;28;20142;-79
2022/04/09 10:49:30;;;;;;;5.30;1.10;;;;;;;;;;4983084;28;20055;-81
2022/04/09 10:52:03;;;;;;;5.85;1.38;;;;;;;;;;4987469;28;20134;-79
2022/04/09 10:54:30;;;;;;;9.98;1.98;;;;;;;;;;4962602;28;20660;-80
2022/04/09 10:57:05;;;;;;;6.30;1.50;;;;;;;;;;4982322;28;20067;-81
2022/04/09 10:59:33;;;;;;;7.60;1.58;;;;;;;;;;4989537;28;20114;-81
2022/04/09 11:02:00;;;;;;;5.90;1.52;;;;;;;;;;4970621;28;20051;-80
2022/04/09 11:04:29;;;;;;;8.45;2.38;;;;;;;;;;4986524;28;20062;-80
2022/04/09 11:07:08;;;;;;;10.05;3.55;;;;;;;;;;4973239;28;20245;-80
2022/04/09 11:09:40;;;;;;;7.72;1.60;;;;;;;;;;4987012;28;20149;-80
2022/04/09 11:12:07;;;;;;;8.27;2.40;;;;;;;;;;4991324;28;20082;-81
2022/04/09 11:14:42;;;;;;;7.03;2.95;;;;;;;;;;4982237;28;20149;-79
2022/04/09 11:17:15;;;;;;;10.68;3.70;;;;;;;;;;4976606;28;20636;-80
2022/04/09 11:19:42;;;;;;;6.32;1.98;;;;;;;;;;4993321;28;20046;-80
2022/04/09 11:22:15;;;;;;;7.30;2.20;;;;;;;;;;4970499;28;20063;-80
2022/04/09 11:24:42;;;;;;;9.43;2.83;;;;;;;;;;4984899;28;20103;-80
2022/04/09 11:27:10;;;;;;;8.43;1.38;;;;;;;;;;4974264;28;20138;-80
2022/04/09 11:29:38;;;;;;;8.73;1.95;;;;;;;;;;4988351;28;20066;-80
2022/04/09 11:32:04;;;;;;;6.97;2.33;;;;;;;;;;4973893;28;20146;-79
2022/04/09 11:34:45;;;;;;;7.93;1.92;;;;;;;;;;4985353;28;20058;-80
2022/04/09 11:37:12;;;;;;;7.30;1.35;;;;;;;;;;4987927;28;20126;-81
2022/04/09 11:39:43;;;;;;;5.10;1.15;;;;;;;;;;4972564;28;20952;-79
2022/04/09 11:42:10;;;;;;;9.10;1.40;;;;;;;;;;4981819;28;20110;-79
2022/04/09 11:44:40;;;;;;;9.27;1.60;;;;;;;;;;4987053;28;20082;-79
2022/04/09 11:47:16;;;;;;;8.13;1.17;;;;;;;;;;4989529;28;20533;-78
2022/04/09 11:49:43;;;;;;;6.22;1.30;;;;;;;;;;4988440;28;20520;-79
2022/04/09 11:52:10;;;;;;;7.50;1.40;;;;;;;;;;4973917;28;20153;-78
2022/04/09 11:54:38;;;;;;;9.45;1.42;;;;;;;;;;4974168;28;20149;-78
2022/04/09 11:57:09;;;;;;;7.55;2.05;;;;;;;;;;4989874;28;20051;-79
2022/04/09 11:59:36;;;;;;;6.38;1.08;;;;;;;;;;4972444;28;21014;-79
2022/04/09 12:02:03;;;;;;;9.80;1.45;;;;;;;;;;4989725;28;20070;-78
2022/04/09 12:04:36;;;;;;;8.40;1.30;;;;;;;;;;4969633;28;20055;-79
2022/04/09 12:07:03;;;;;;;7.78;1.23;;;;;;;;;;4968866;28;20514;-79
2022/04/09 12:09:30;;;;;;;8.73;1.33;;;;;;;;;;4989744;28;20141;-79
2022/04/09 12:12:01;;;;;;;9.77;1.30;;;;;;;;;;4991539;28;20055;-78
2022/04/09 12:14:27;;;;;;;8.10;1.75;;;;;;;;;;4989226;28;20055;-78
2022/04/09 12:16:54;;;;;;;7.38;1.30;;;;;;;;;;4989660;28;20086;-79
2022/04/09 12:19:31;;;;;;;7.32;1.60;;;;;;;;;;4984519;28;20122;-79
2022/04/09 12:22:17;;;;;;;8.63;2.20;;;;;;;;;;5016183;28;20145;-79
2022/04/09 12:24:47;;;;;;;5.97;1.17;;;;;;;;;;4989772;28;20099;-79
2022/04/09 12:27:40;;;;;;;7.18;1.15;;;;;;;;;;4999135;28;20098;-78
2022/04/09 12:30:07;;;;;;;13.20;2.45;;;;;;;;;;4988620;28;20142;-80
2022/04/09 12:32:33;;;;;;;8.48;1.40;;;;;;;;;;4976957;28;20145;-79
2022/04/09 12:35:03;;;;;;;7.20;1.13;;;;;;;;;;4981459;28;20083;-79
2022/04/09 12:37:29;;;;;;;7.85;1.65;;;;;;;;;;4975098;28;20043;-80
2022/04/09 12:40:15;;;;;;;10.02;1.30;;;;;;;;;;4990100;28;20101;-78
2022/04/09 12:42:42;;;;;;;7.20;1.15;;;;;;;;;;4990610;28;20062;-79
2022/04/09 12:45:10;;;;;;;7.10;1.55;;;;;;;;;;4996892;28;20073;-79
2022/04/09 12:47:36;;;;;;;8.07;1.40;;;;;;;;;;4990320;28;20085;-79
2022/04/09 12:50:04;;;;;;;12.18;2.03;;;;;;;;;;4969035;28;20609;-80
2022/04/09 12:52:31;;;;;;;5.30;1.08;;;;;;;;;;4986784;28;20039;-79
2022/04/09 12:54:58;;;;;;;6.32;1.20;;;;;;;;;;4994781;28;20090;-78
2022/04/09 12:57:24;;;;;;;5.25;1.00;;;;;;;;;;4978749;28;20035;-79
2022/04/09 12:59:51;;;;;;;3.97;0.90;;;;;;;;;;4975448;28;20047;-79
2022/04/09 13:02:17;;;;;;;3.95;0.90;;;;;;;;;;4990550;28;20145;-79
2022/04/09 13:04:44;;;;;;;4.50;1.10;;;;;;;;;;4992020;28;20861;-80
2022/04/09 13:07:10;;;;;;;6.18;0.98;;;;;;;;;;4990895;28;20525;-79
2022/04/09 13:09:36;;;;;;;6.38;0.98;;;;;;;;;;4967986;28;20066;-80
2022/04/09 13:12:03;;;;;;;4.82;0.80;;;;;;;;;;4972531;28;20054;-79
2022/04/09 13:14:29;;;;;;;6.80;0.85;;;;;;;;;;4980273;28;20074;-80
2022/04/09 13:17:00;;;;;;;4.78;0.80;;;;;;;;;;4983445;28;20062;-79
2022/04/09 13:19:29;;;;;;;2.83;0.80;;;;;;;;;;4985564;28;20051;-80
2022/04/09 13:21:55;;;;;;;4.53;0.90;;;;;;;;;;4984450;28;20059;-79
2022/04/09 13:24:22;;;;;;;3.17;0.85;;;;;;;;;;4987418;28;20149;-78
2022/04/09 13:26:48;;;;;;;4.90;1.20;;;;;;;;;;4968594;28;20089;-78
2022/04/09 13:29:17;;;;;;;6.43;1.52;;;;;;;;;;4989535;28;20531;-79
2022/04/09 13:31:45;;;;;;;3.50;0.80;;;;;;;;;;4987739;28;20086;-79
2022/04/09 13:34:14;;;;;;;5.85;1.02;;;;;;;;;;4988288;28;20054;-79
2022/04/09 13:36:41;;;;;;;4.15;0.85;;;;;;;;;;4971846;28;20110;-78
2022/04/09 13:39:07;;;;;;;4.40;0.90;;;;;;;;;;4988403;28;20142;-78
2022/04/09 13:41:54;;;;;;;3.85;0.88;;;;;;;;;;4972777;28;20058;-78
2022/04/09 13:44:20;;;;;;;4.85;0.80;;;;;;;;;;4987432;28;20086;-79
2022/04/09 13:46:46;;;;;;;4.07;0.70;;;;;;;;;;4986720;28;20066;-79
2022/04/09 13:49:16;;;;;;;4.75;0.90;;;;;;;;;;4971697;28;20146;-79
2022/04/09 13:51:42;;;;;;;3.72;0.90;;;;;;;;;;4984415;28;20058;-80
2022/04/09 13:54:09;;;;;;;4.10;1.20;;;;;;;;;;4976385;28;20078;-78
2022/04/09 13:56:35;;;;;;;5.00;1.05;;;;;;;;;;4969901;28;20055;-79
2022/04/09 13:59:02;;;;;;;6.95;1.33;;;;;;;;;;4988494;28;20086;-79
2022/04/09 14:01:30;;;;;;;3.58;0.80;;;;;;;;;;4970714;28;20062;-78
2022/04/09 14:03:57;;;;;;;4.55;1.05;;;;;;;;;;4988912;28;20506;-82
2022/04/09 14:06:24;;;;;;;9.98;1.38;;;;;;;;;;4974739;28;20102;-77
2022/04/09 14:08:50;;;;;;;4.43;0.88;;;;;;;;;;4983172;28;20083;-79
2022/04/09 14:11:17;;;;;;;6.50;1.40;;;;;;;;;;4982191;28;20594;-81
2022/04/09 14:13:43;;;;;;;8.85;1.30;;;;;;;;;;4987570;28;20055;-78
2022/04/09 14:16:10;;;;;;;7.07;1.27;;;;;;;;;;4988502;28;20058;-78
2022/04/09 14:18:37;;;;;;;10.40;1.55;;;;;;;;;;4972104;28;20058;-79
2022/04/09 14:21:03;;;;;;;7.55;1.30;;;;;;;;;;4984759;28;20079;-80
2022/04/09 14:23:29;;;;;;;11.45;1.60;;;;;;;;;;4971229;28;20193;-79
2022/04/09 14:25:56;;;;;;;10.63;1.48;;;;;;;;;;4987272;28;20147;-81
2022/04/09 14:28:26;;;;;;;12.90;2.00;;;;;;;;;;4976145;28;20086;-78
2022/04/09 14:30:55;;;;;;;7.07;1.33;;;;;;;;;;4994848;28;20051;-79
2022/04/09 14:33:22;;;;;;;6.50;1.30;;;;;;;;;;4987859;28;20133;-80
2022/04/09 14:35:49;;;;;;;7.28;1.20;;;;;;;;;;4969272;28;20074;-80
2022/04/09 14:38:19;;;;;;;2.75;0.90;;;;;;;;;;4967645;28;20494;-80
2022/04/09 14:40:45;;;;;;;1.98;0.68;;;;;;;;;;4986198;28;20133;-78
2022/04/09 14:43:12;;;;;;;9.23;2.35;;;;;;;;;;4965647;28;20047;-79
2022/04/09 14:45:40;;;;;;;8.00;2.45;;;;;;;;;;4981306;28;20050;-81